sensor_id;sensor_type;location;lat;lon;timestamp;P1;durP1;ratioP1;P2;durP2;ratioP2
75655;SDS011;64252;51.094;13.714;2023-05-09T00:01:26;6.45;;;2.63;;
75655;SDS011;64252;51.094;13.714;2023-05-09T00:03:54;5.15;;;2.28;;
75655;SDS011;64252;51.094;13.714;2023-05-09T00:06:19;4.60;;;2.67;;
75655;SDS011;64252;51.094;13.714;2023-05-09T00:08:45;5.68;;;2.63;;
75655;SDS011;64252;51.094;13.714;2023-05-09T00:11:11;5.07;;;2.85;;
75655;SDS011;64252;51.094;13.714;2023-05-09T00:13:39;4.95;;;2.50;;
75655;SDS011;64252;51.094;13.714;2023-05-09T00:16:06;5.53;;;2.83;;
75655;SDS011;64252;51.094;13.714;2023-05-09T00:18:32;5.55;;;2.33;;
75655;SDS011;64252;51.094;13.714;2023-05-09T00:20:58;4.53;;;2.42;;
75655;SDS011;64252;51.094;13.714;2023-05-09T00:23:23;4.28;;;2.30;;
75655;SDS011;64252;51.094;13.714;2023-05-09T00:25:49;4.03;;;2.42;;
75655;SDS011;64252;51.094;13.714;2023-05-09T00:28:15;4.97;;;2.35;;
75655;SDS011;64252;51.094;13.714;2023-05-09T00:30:40;4.13;;;2.45;;
75655;SDS011;64252;51.094;13.714;2023-05-09T00:33:06;5.47;;;2.50;;
75655;SDS011;64252;51.094;13.714;2023-05-09T00:35:31;6.85;;;2.72;;
75655;SDS011;64252;51.094;13.714;2023-05-09T00:37:58;7.65;;;2.60;;
75655;SDS011;64252;51.094;13.714;2023-05-09T00:40:23;4.03;;;2.53;;
75655;SDS011;64252;51.094;13.714;2023-05-09T00:42:49;5.13;;;2.60;;
75655;SDS011;64252;51.094;13.714;2023-05-09T00:45:15;4.45;;;2.30;;
75655;SDS011;64252;51.094;13.714;2023-05-09T00:47:41;7.18;;;2.47;;
75655;SDS011;64252;51.094;13.714;2023-05-09T00:50:07;5.55;;;2.63;;
75655;SDS011;64252;51.094;13.714;2023-05-09T00:52:33;5.35;;;2.42;;
75655;SDS011;64252;51.094;13.714;2023-05-09T00:54:59;9.00;;;3.30;;
75655;SDS011;64252;51.094;13.714;2023-05-09T00:57:27;5.90;;;2.55;;
75655;SDS011;64252;51.094;13.714;2023-05-09T00:59:52;5.25;;;2.58;;
75655;SDS011;64252;51.094;13.714;2023-05-09T01:02:19;9.25;;;3.10;;
75655;SDS011;64252;51.094;13.714;2023-05-09T01:04:45;5.65;;;2.63;;
75655;SDS011;64252;51.094;13.714;2023-05-09T01:09:57;4.43;;;2.13;;
75655;SDS011;64252;51.094;13.714;2023-05-09T01:15:22;6.72;;;3.08;;
75655;SDS011;64252;51.094;13.714;2023-05-09T01:18:02;5.75;;;2.88;;
75655;SDS011;64252;51.094;13.714;2023-05-09T01:20:41;5.60;;;2.72;;
75655;SDS011;64252;51.094;13.714;2023-05-09T01:23:31;6.38;;;2.72;;
75655;SDS011;64252;51.094;13.714;2023-05-09T01:31:54;5.35;;;2.67;;
75655;SDS011;64252;51.094;13.714;2023-05-09T01:34:21;9.80;;;3.13;;
75655;SDS011;64252;51.094;13.714;2023-05-09T01:39:19;5.68;;;2.88;;
75655;SDS011;64252;51.094;13.714;2023-05-09T01:41:49;5.85;;;2.95;;
75655;SDS011;64252;51.094;13.714;2023-05-09T01:44:17;5.95;;;3.08;;
75655;SDS011;64252;51.094;13.714;2023-05-09T01:46:46;7.05;;;2.65;;
75655;SDS011;64252;51.094;13.714;2023-05-09T01:49:14;5.50;;;2.42;;
75655;SDS011;64252;51.094;13.714;2023-05-09T01:51:41;5.68;;;3.28;;
75655;SDS011;64252;51.094;13.714;2023-05-09T01:54:08;8.88;;;3.03;;
75655;SDS011;64252;51.094;13.714;2023-05-09T01:56:35;5.75;;;2.60;;
75655;SDS011;64252;51.094;13.714;2023-05-09T01:59:04;6.50;;;2.92;;
75655;SDS011;64252;51.094;13.714;2023-05-09T02:01:31;9.40;;;2.65;;
75655;SDS011;64252;51.094;13.714;2023-05-09T02:03:59;6.85;;;2.85;;
75655;SDS011;64252;51.094;13.714;2023-05-09T02:06:27;5.97;;;2.83;;
75655;SDS011;64252;51.094;13.714;2023-05-09T02:08:56;8.20;;;3.28;;
75655;SDS011;64252;51.094;13.714;2023-05-09T02:11:24;5.55;;;2.90;;
75655;SDS011;64252;51.094;13.714;2023-05-09T02:13:50;4.30;;;2.42;;
75655;SDS011;64252;51.094;13.714;2023-05-09T02:16:15;7.63;;;3.22;;
75655;SDS011;64252;51.094;13.714;2023-05-09T02:18:41;5.55;;;2.88;;
75655;SDS011;64252;51.094;13.714;2023-05-09T02:21:06;5.68;;;2.95;;
75655;SDS011;64252;51.094;13.714;2023-05-09T02:23:32;6.65;;;3.33;;
75655;SDS011;64252;51.094;13.714;2023-05-09T02:25:58;5.32;;;2.50;;
75655;SDS011;64252;51.094;13.714;2023-05-09T02:28:25;7.78;;;2.92;;
75655;SDS011;64252;51.094;13.714;2023-05-09T02:30:52;6.32;;;2.88;;
75655;SDS011;64252;51.094;13.714;2023-05-09T02:33:21;5.50;;;2.80;;
75655;SDS011;64252;51.094;13.714;2023-05-09T02:35:47;4.47;;;2.35;;
75655;SDS011;64252;51.094;13.714;2023-05-09T02:38:15;7.22;;;3.00;;
75655;SDS011;64252;51.094;13.714;2023-05-09T02:40:41;5.05;;;2.50;;
75655;SDS011;64252;51.094;13.714;2023-05-09T02:43:08;6.90;;;3.05;;
75655;SDS011;64252;51.094;13.714;2023-05-09T02:45:33;4.95;;;2.58;;
75655;SDS011;64252;51.094;13.714;2023-05-09T02:48:01;4.47;;;2.30;;
75655;SDS011;64252;51.094;13.714;2023-05-09T02:50:27;6.00;;;3.08;;
75655;SDS011;64252;51.094;13.714;2023-05-09T02:52:52;5.55;;;2.50;;
75655;SDS011;64252;51.094;13.714;2023-05-09T02:55:18;4.88;;;2.72;;
75655;SDS011;64252;51.094;13.714;2023-05-09T02:57:44;5.32;;;2.70;;
75655;SDS011;64252;51.094;13.714;2023-05-09T03:00:10;4.63;;;2.33;;
75655;SDS011;64252;51.094;13.714;2023-05-09T03:02:37;5.65;;;2.50;;
75655;SDS011;64252;51.094;13.714;2023-05-09T03:05:04;6.82;;;3.00;;
75655;SDS011;64252;51.094;13.714;2023-05-09T03:07:32;5.15;;;2.45;;
75655;SDS011;64252;51.094;13.714;2023-05-09T03:09:58;6.38;;;2.67;;
75655;SDS011;64252;51.094;13.714;2023-05-09T03:12:24;6.07;;;2.63;;
75655;SDS011;64252;51.094;13.714;2023-05-09T03:14:52;6.90;;;2.65;;
75655;SDS011;64252;51.094;13.714;2023-05-09T03:17:18;6.07;;;2.70;;
75655;SDS011;64252;51.094;13.714;2023-05-09T03:19:46;5.07;;;2.58;;
75655;SDS011;64252;51.094;13.714;2023-05-09T03:22:15;7.68;;;2.85;;
75655;SDS011;64252;51.094;13.714;2023-05-09T03:24:50;4.78;;;2.25;;
75655;SDS011;64252;51.094;13.714;2023-05-09T03:27:16;5.13;;;2.53;;
75655;SDS011;64252;51.094;13.714;2023-05-09T03:29:42;5.15;;;2.60;;
75655;SDS011;64252;51.094;13.714;2023-05-09T03:32:07;5.68;;;2.63;;
75655;SDS011;64252;51.094;13.714;2023-05-09T03:34:33;3.78;;;2.13;;
75655;SDS011;64252;51.094;13.714;2023-05-09T03:37:01;5.20;;;2.60;;
75655;SDS011;64252;51.094;13.714;2023-05-09T03:39:29;5.68;;;2.28;;
75655;SDS011;64252;51.094;13.714;2023-05-09T03:41:55;7.22;;;2.58;;
75655;SDS011;64252;51.094;13.714;2023-05-09T03:44:21;6.22;;;2.80;;
75655;SDS011;64252;51.094;13.714;2023-05-09T03:46:47;6.57;;;2.90;;
75655;SDS011;64252;51.094;13.714;2023-05-09T03:49:13;4.75;;;2.47;;
75655;SDS011;64252;51.094;13.714;2023-05-09T03:51:39;5.50;;;2.50;;
75655;SDS011;64252;51.094;13.714;2023-05-09T03:54:08;8.77;;;2.60;;
75655;SDS011;64252;51.094;13.714;2023-05-09T03:56:34;6.97;;;2.50;;
75655;SDS011;64252;51.094;13.714;2023-05-09T03:59:00;5.85;;;2.38;;
75655;SDS011;64252;51.094;13.714;2023-05-09T04:01:26;4.43;;;2.38;;
75655;SDS011;64252;51.094;13.714;2023-05-09T04:03:54;5.03;;;2.42;;
75655;SDS011;64252;51.094;13.714;2023-05-09T04:06:22;5.57;;;2.50;;
75655;SDS011;64252;51.094;13.714;2023-05-09T04:08:48;5.20;;;2.40;;
75655;SDS011;64252;51.094;13.714;2023-05-09T04:11:14;5.20;;;2.20;;
75655;SDS011;64252;51.094;13.714;2023-05-09T04:13:42;5.38;;;2.53;;
75655;SDS011;64252;51.094;13.714;2023-05-09T04:16:21;4.57;;;2.40;;
75655;SDS011;64252;51.094;13.714;2023-05-09T04:18:47;15.23;;;2.67;;
75655;SDS011;64252;51.094;13.714;2023-05-09T04:21:13;5.63;;;2.38;;
75655;SDS011;64252;51.094;13.714;2023-05-09T04:23:40;7.00;;;2.38;;
75655;SDS011;64252;51.094;13.714;2023-05-09T04:26:08;5.38;;;2.15;;
75655;SDS011;64252;51.094;13.714;2023-05-09T04:28:37;4.10;;;2.40;;
75655;SDS011;64252;51.094;13.714;2023-05-09T04:31:03;4.93;;;2.08;;
75655;SDS011;64252;51.094;13.714;2023-05-09T04:33:30;6.55;;;2.63;;
75655;SDS011;64252;51.094;13.714;2023-05-09T04:36:00;4.88;;;2.33;;
75655;SDS011;64252;51.094;13.714;2023-05-09T04:38:26;5.78;;;2.35;;
75655;SDS011;64252;51.094;13.714;2023-05-09T04:40:52;5.25;;;2.30;;
75655;SDS011;64252;51.094;13.714;2023-05-09T04:43:18;4.90;;;2.25;;
75655;SDS011;64252;51.094;13.714;2023-05-09T04:45:44;8.43;;;2.85;;
75655;SDS011;64252;51.094;13.714;2023-05-09T04:48:11;6.88;;;2.15;;
75655;SDS011;64252;51.094;13.714;2023-05-09T04:50:37;6.63;;;2.63;;
75655;SDS011;64252;51.094;13.714;2023-05-09T04:53:02;5.45;;;2.15;;
75655;SDS011;64252;51.094;13.714;2023-05-09T04:55:28;5.45;;;2.10;;
75655;SDS011;64252;51.094;13.714;2023-05-09T04:57:55;6.60;;;2.20;;
75655;SDS011;64252;51.094;13.714;2023-05-09T05:00:20;4.95;;;2.33;;
75655;SDS011;64252;51.094;13.714;2023-05-09T05:02:47;4.20;;;2.08;;
75655;SDS011;64252;51.094;13.714;2023-05-09T05:05:13;6.90;;;2.45;;
75655;SDS011;64252;51.094;13.714;2023-05-09T05:07:41;5.85;;;2.00;;
75655;SDS011;64252;51.094;13.714;2023-05-09T05:10:09;5.13;;;2.33;;
75655;SDS011;64252;51.094;13.714;2023-05-09T05:12:36;7.05;;;2.30;;
75655;SDS011;64252;51.094;13.714;2023-05-09T05:15:06;5.35;;;1.92;;
75655;SDS011;64252;51.094;13.714;2023-05-09T05:17:32;5.70;;;1.88;;
75655;SDS011;64252;51.094;13.714;2023-05-09T05:19:59;5.45;;;2.08;;
75655;SDS011;64252;51.094;13.714;2023-05-09T05:22:27;5.10;;;2.10;;
75655;SDS011;64252;51.094;13.714;2023-05-09T05:24:53;8.15;;;1.75;;
75655;SDS011;64252;51.094;13.714;2023-05-09T05:27:18;4.28;;;1.85;;
75655;SDS011;64252;51.094;13.714;2023-05-09T05:29:44;4.78;;;2.20;;
75655;SDS011;64252;51.094;13.714;2023-05-09T05:32:09;3.88;;;1.90;;
75655;SDS011;64252;51.094;13.714;2023-05-09T05:34:35;4.45;;;2.10;;
75655;SDS011;64252;51.094;13.714;2023-05-09T05:37:01;5.50;;;1.75;;
75655;SDS011;64252;51.094;13.714;2023-05-09T05:39:27;7.63;;;2.17;;
75655;SDS011;64252;51.094;13.714;2023-05-09T05:41:52;3.95;;;1.70;;
75655;SDS011;64252;51.094;13.714;2023-05-09T05:44:18;5.20;;;2.10;;
75655;SDS011;64252;51.094;13.714;2023-05-09T05:46:44;4.25;;;2.03;;
75655;SDS011;64252;51.094;13.714;2023-05-09T05:49:09;4.47;;;2.00;;
75655;SDS011;64252;51.094;13.714;2023-05-09T05:51:35;4.15;;;1.98;;
75655;SDS011;64252;51.094;13.714;2023-05-09T05:54:02;5.40;;;2.08;;
75655;SDS011;64252;51.094;13.714;2023-05-09T05:56:32;5.65;;;2.10;;
75655;SDS011;64252;51.094;13.714;2023-05-09T05:58:58;4.05;;;2.00;;
75655;SDS011;64252;51.094;13.714;2023-05-09T06:01:23;5.03;;;2.38;;
75655;SDS011;64252;51.094;13.714;2023-05-09T06:03:49;4.28;;;1.92;;
75655;SDS011;64252;51.094;13.714;2023-05-09T06:06:20;5.18;;;1.92;;
75655;SDS011;64252;51.094;13.714;2023-05-09T06:08:46;5.93;;;2.13;;
75655;SDS011;64252;51.094;13.714;2023-05-09T06:11:14;4.50;;;2.00;;
75655;SDS011;64252;51.094;13.714;2023-05-09T06:13:40;6.43;;;2.42;;
75655;SDS011;64252;51.094;13.714;2023-05-09T06:16:07;4.53;;;2.05;;
75655;SDS011;64252;51.094;13.714;2023-05-09T06:18:35;8.40;;;2.50;;
75655;SDS011;64252;51.094;13.714;2023-05-09T06:21:05;4.78;;;2.33;;
75655;SDS011;64252;51.094;13.714;2023-05-09T06:23:31;6.05;;;2.10;;
75655;SDS011;64252;51.094;13.714;2023-05-09T06:25:57;6.40;;;2.22;;
75655;SDS011;64252;51.094;13.714;2023-05-09T06:28:23;5.35;;;2.13;;
75655;SDS011;64252;51.094;13.714;2023-05-09T06:30:48;7.70;;;2.40;;
75655;SDS011;64252;51.094;13.714;2023-05-09T06:33:14;4.75;;;2.00;;
75655;SDS011;64252;51.094;13.714;2023-05-09T06:35:40;7.30;;;2.22;;
75655;SDS011;64252;51.094;13.714;2023-05-09T06:38:05;4.68;;;1.92;;
75655;SDS011;64252;51.094;13.714;2023-05-09T06:40:31;6.38;;;2.10;;
75655;SDS011;64252;51.094;13.714;2023-05-09T06:42:57;4.35;;;2.33;;
75655;SDS011;64252;51.094;13.714;2023-05-09T06:45:22;5.43;;;2.17;;
75655;SDS011;64252;51.094;13.714;2023-05-09T06:47:48;4.78;;;2.20;;
75655;SDS011;64252;51.094;13.714;2023-05-09T06:50:13;4.82;;;2.13;;
75655;SDS011;64252;51.094;13.714;2023-05-09T06:52:39;6.00;;;1.77;;
75655;SDS011;64252;51.094;13.714;2023-05-09T06:55:04;9.18;;;2.10;;
75655;SDS011;64252;51.094;13.714;2023-05-09T06:57:31;4.00;;;1.98;;
75655;SDS011;64252;51.094;13.714;2023-05-09T06:59:56;4.68;;;2.10;;
75655;SDS011;64252;51.094;13.714;2023-05-09T07:02:22;3.85;;;1.92;;
75655;SDS011;64252;51.094;13.714;2023-05-09T07:04:47;3.97;;;1.75;;
75655;SDS011;64252;51.094;13.714;2023-05-09T07:07:13;3.92;;;1.98;;
75655;SDS011;64252;51.094;13.714;2023-05-09T07:09:38;4.43;;;1.83;;
75655;SDS011;64252;51.094;13.714;2023-05-09T07:12:04;3.88;;;1.80;;
75655;SDS011;64252;51.094;13.714;2023-05-09T07:14:30;6.05;;;2.10;;
75655;SDS011;64252;51.094;13.714;2023-05-09T07:16:55;3.55;;;1.73;;
75655;SDS011;64252;51.094;13.714;2023-05-09T07:19:21;5.03;;;1.80;;
75655;SDS011;64252;51.094;13.714;2023-05-09T07:21:46;3.50;;;2.00;;
75655;SDS011;64252;51.094;13.714;2023-05-09T07:24:12;4.75;;;2.00;;
75655;SDS011;64252;51.094;13.714;2023-05-09T07:26:37;5.85;;;2.55;;
75655;SDS011;64252;51.094;13.714;2023-05-09T07:29:03;4.55;;;1.90;;
75655;SDS011;64252;51.094;13.714;2023-05-09T07:31:29;5.95;;;2.10;;
75655;SDS011;64252;51.094;13.714;2023-05-09T07:33:55;4.45;;;1.88;;
75655;SDS011;64252;51.094;13.714;2023-05-09T07:36:21;5.10;;;2.05;;
75655;SDS011;64252;51.094;13.714;2023-05-09T07:38:47;4.05;;;2.10;;
75655;SDS011;64252;51.094;13.714;2023-05-09T07:41:14;6.50;;;2.03;;
75655;SDS011;64252;51.094;13.714;2023-05-09T07:43:40;4.60;;;2.35;;
75655;SDS011;64252;51.094;13.714;2023-05-09T07:46:06;5.30;;;2.10;;
75655;SDS011;64252;51.094;13.714;2023-05-09T07:48:31;4.13;;;2.00;;
75655;SDS011;64252;51.094;13.714;2023-05-09T07:50:57;4.28;;;1.92;;
75655;SDS011;64252;51.094;13.714;2023-05-09T07:53:22;9.15;;;2.17;;
75655;SDS011;64252;51.094;13.714;2023-05-09T07:55:48;5.32;;;2.40;;
75655;SDS011;64252;51.094;13.714;2023-05-09T07:58:14;6.00;;;2.28;;
75655;SDS011;64252;51.094;13.714;2023-05-09T08:00:41;6.55;;;2.35;;
75655;SDS011;64252;51.094;13.714;2023-05-09T08:03:07;5.70;;;2.28;;
75655;SDS011;64252;51.094;13.714;2023-05-09T08:05:32;4.38;;;2.05;;
75655;SDS011;64252;51.094;13.714;2023-05-09T08:07:58;8.07;;;2.38;;
75655;SDS011;64252;51.094;13.714;2023-05-09T08:10:24;4.75;;;2.10;;
75655;SDS011;64252;51.094;13.714;2023-05-09T08:12:51;6.32;;;2.10;;
75655;SDS011;64252;51.094;13.714;2023-05-09T08:15:16;4.65;;;2.10;;
75655;SDS011;64252;51.094;13.714;2023-05-09T08:17:42;4.55;;;1.77;;
75655;SDS011;64252;51.094;13.714;2023-05-09T08:20:08;4.70;;;2.00;;
75655;SDS011;64252;51.094;13.714;2023-05-09T08:22:37;6.43;;;2.30;;
75655;SDS011;64252;51.094;13.714;2023-05-09T08:25:03;4.00;;;1.95;;
75655;SDS011;64252;51.094;13.714;2023-05-09T08:27:29;5.57;;;1.90;;
75655;SDS011;64252;51.094;13.714;2023-05-09T08:29:54;4.90;;;1.65;;
75655;SDS011;64252;51.094;13.714;2023-05-09T08:32:20;4.90;;;2.05;;
75655;SDS011;64252;51.094;13.714;2023-05-09T08:34:45;11.07;;;2.47;;
75655;SDS011;64252;51.094;13.714;2023-05-09T08:37:11;3.88;;;2.00;;
75655;SDS011;64252;51.094;13.714;2023-05-09T08:39:36;6.13;;;1.92;;
75655;SDS011;64252;51.094;13.714;2023-05-09T08:42:02;3.83;;;1.50;;
75655;SDS011;64252;51.094;13.714;2023-05-09T08:44:28;4.03;;;2.13;;
75655;SDS011;64252;51.094;13.714;2023-05-09T08:46:57;4.40;;;1.92;;
75655;SDS011;64252;51.094;13.714;2023-05-09T08:49:24;6.00;;;1.90;;
75655;SDS011;64252;51.094;13.714;2023-05-09T08:51:50;4.28;;;2.00;;
75655;SDS011;64252;51.094;13.714;2023-05-09T08:54:16;4.25;;;1.60;;
75655;SDS011;64252;51.094;13.714;2023-05-09T08:56:43;5.57;;;1.73;;
75655;SDS011;64252;51.094;13.714;2023-05-09T08:59:08;3.63;;;1.85;;
75655;SDS011;64252;51.094;13.714;2023-05-09T09:01:34;4.95;;;1.90;;
75655;SDS011;64252;51.094;13.714;2023-05-09T09:04:04;5.22;;;1.83;;
75655;SDS011;64252;51.094;13.714;2023-05-09T09:06:34;5.68;;;2.03;;
75655;SDS011;64252;51.094;13.714;2023-05-09T09:11:30;6.00;;;1.88;;
75655;SDS011;64252;51.094;13.714;2023-05-09T09:14:00;6.53;;;2.22;;
75655;SDS011;64252;51.094;13.714;2023-05-09T09:16:30;3.35;;;1.58;;
75655;SDS011;64252;51.094;13.714;2023-05-09T09:18:58;4.15;;;1.73;;
75655;SDS011;64252;51.094;13.714;2023-05-09T09:21:24;7.82;;;2.25;;
75655;SDS011;64252;51.094;13.714;2023-05-09T09:23:50;4.68;;;1.75;;
75655;SDS011;64252;51.094;13.714;2023-05-09T09:26:20;3.72;;;1.48;;
75655;SDS011;64252;51.094;13.714;2023-05-09T09:28:46;4.95;;;1.70;;
75655;SDS011;64252;51.094;13.714;2023-05-09T09:31:21;4.15;;;1.63;;
75655;SDS011;64252;51.094;13.714;2023-05-09T09:34:01;3.65;;;1.60;;
75655;SDS011;64252;51.094;13.714;2023-05-09T09:36:30;4.95;;;1.92;;
75655;SDS011;64252;51.094;13.714;2023-05-09T09:39:01;3.47;;;1.88;;
75655;SDS011;64252;51.094;13.714;2023-05-09T09:43:57;7.95;;;1.58;;
75655;SDS011;64252;51.094;13.714;2023-05-09T09:46:22;4.03;;;1.70;;
75655;SDS011;64252;51.094;13.714;2023-05-09T09:48:48;4.90;;;1.77;;
75655;SDS011;64252;51.094;13.714;2023-05-09T09:51:18;4.82;;;2.10;;
75655;SDS011;64252;51.094;13.714;2023-05-09T09:53:45;4.22;;;1.55;;
75655;SDS011;64252;51.094;13.714;2023-05-09T09:56:11;4.80;;;2.13;;
75655;SDS011;64252;51.094;13.714;2023-05-09T09:58:37;5.85;;;2.00;;
75655;SDS011;64252;51.094;13.714;2023-05-09T10:01:04;5.55;;;1.95;;
75655;SDS011;64252;51.094;13.714;2023-05-09T10:03:41;5.68;;;2.00;;
75655;SDS011;64252;51.094;13.714;2023-05-09T10:06:12;6.03;;;1.88;;
75655;SDS011;64252;51.094;13.714;2023-05-09T10:08:39;4.07;;;2.00;;
75655;SDS011;64252;51.094;13.714;2023-05-09T10:11:06;5.03;;;1.80;;
75655;SDS011;64252;51.094;13.714;2023-05-09T10:13:36;4.40;;;2.00;;
75655;SDS011;64252;51.094;13.714;2023-05-09T10:16:02;6.72;;;2.20;;
75655;SDS011;64252;51.094;13.714;2023-05-09T10:18:29;3.38;;;1.77;;
75655;SDS011;64252;51.094;13.714;2023-05-09T10:20:56;3.67;;;1.52;;
75655;SDS011;64252;51.094;13.714;2023-05-09T10:23:28;6.18;;;1.67;;
75655;SDS011;64252;51.094;13.714;2023-05-09T10:26:04;3.80;;;1.80;;
75655;SDS011;64252;51.094;13.714;2023-05-09T10:28:34;4.22;;;1.80;;
75655;SDS011;64252;51.094;13.714;2023-05-09T10:31:06;5.40;;;1.85;;
75655;SDS011;64252;51.094;13.714;2023-05-09T10:33:37;3.97;;;1.92;;
75655;SDS011;64252;51.094;13.714;2023-05-09T10:36:07;4.90;;;2.15;;
75655;SDS011;64252;51.094;13.714;2023-05-09T10:38:35;3.50;;;1.70;;
75655;SDS011;64252;51.094;13.714;2023-05-09T10:41:01;3.78;;;1.65;;
75655;SDS011;64252;51.094;13.714;2023-05-09T10:43:27;5.45;;;1.90;;
75655;SDS011;64252;51.094;13.714;2023-05-09T10:45:54;5.05;;;1.83;;
75655;SDS011;64252;51.094;13.714;2023-05-09T10:48:20;4.38;;;1.50;;
75655;SDS011;64252;51.094;13.714;2023-05-09T10:50:46;3.65;;;1.80;;
75655;SDS011;64252;51.094;13.714;2023-05-09T10:53:13;3.83;;;1.60;;
75655;SDS011;64252;51.094;13.714;2023-05-09T10:55:48;3.15;;;1.52;;
75655;SDS011;64252;51.094;13.714;2023-05-09T10:58:20;4.43;;;1.52;;
75655;SDS011;64252;51.094;13.714;2023-05-09T11:00:58;4.15;;;1.33;;
75655;SDS011;64252;51.094;13.714;2023-05-09T11:03:25;5.57;;;1.73;;
75655;SDS011;64252;51.094;13.714;2023-05-09T11:05:57;5.28;;;1.58;;
75655;SDS011;64252;51.094;13.714;2023-05-09T11:08:28;7.60;;;1.80;;
75655;SDS011;64252;51.094;13.714;2023-05-09T11:10:58;3.85;;;1.70;;
75655;SDS011;64252;51.094;13.714;2023-05-09T11:13:31;7.68;;;1.90;;
75655;SDS011;64252;51.094;13.714;2023-05-09T11:18:27;6.15;;;1.42;;
75655;SDS011;64252;51.094;13.714;2023-05-09T11:20:53;6.78;;;2.00;;
75655;SDS011;64252;51.094;13.714;2023-05-09T11:23:20;6.20;;;1.77;;
75655;SDS011;64252;51.094;13.714;2023-05-09T11:25:50;5.00;;;1.70;;
75655;SDS011;64252;51.094;13.714;2023-05-09T11:28:29;8.55;;;1.73;;
75655;SDS011;64252;51.094;13.714;2023-05-09T11:31:09;3.72;;;1.50;;
75655;SDS011;64252;51.094;13.714;2023-05-09T11:33:37;3.22;;;1.52;;
75655;SDS011;64252;51.094;13.714;2023-05-09T11:38:58;3.92;;;1.60;;
75655;SDS011;64252;51.094;13.714;2023-05-09T11:41:28;4.10;;;1.58;;
75655;SDS011;64252;51.094;13.714;2023-05-09T11:46:41;4.85;;;1.73;;
75655;SDS011;64252;51.094;13.714;2023-05-09T11:49:07;4.68;;;1.48;;
75655;SDS011;64252;51.094;13.714;2023-05-09T11:51:34;4.28;;;1.77;;
75655;SDS011;64252;51.094;13.714;2023-05-09T11:54:01;5.68;;;1.70;;
75655;SDS011;64252;51.094;13.714;2023-05-09T11:56:28;3.22;;;1.50;;
75655;SDS011;64252;51.094;13.714;2023-05-09T11:58:54;4.35;;;1.50;;
75655;SDS011;64252;51.094;13.714;2023-05-09T12:01:20;3.85;;;1.50;;
75655;SDS011;64252;51.094;13.714;2023-05-09T12:03:47;4.53;;;1.55;;
75655;SDS011;64252;51.094;13.714;2023-05-09T12:06:17;5.90;;;1.70;;
75655;SDS011;64252;51.094;13.714;2023-05-09T12:08:44;5.50;;;1.42;;
75655;SDS011;64252;51.094;13.714;2023-05-09T12:11:10;3.25;;;1.40;;
75655;SDS011;64252;51.094;13.714;2023-05-09T12:16:29;6.07;;;1.63;;
75655;SDS011;64252;51.094;13.714;2023-05-09T12:18:55;3.85;;;1.42;;
75655;SDS011;64252;51.094;13.714;2023-05-09T12:21:20;3.67;;;1.40;;
75655;SDS011;64252;51.094;13.714;2023-05-09T12:23:46;5.00;;;1.70;;
75655;SDS011;64252;51.094;13.714;2023-05-09T12:26:12;3.35;;;1.48;;
75655;SDS011;64252;51.094;13.714;2023-05-09T12:28:38;5.28;;;1.60;;
75655;SDS011;64252;51.094;13.714;2023-05-09T12:31:04;4.13;;;1.63;;
75655;SDS011;64252;51.094;13.714;2023-05-09T12:33:31;4.03;;;1.33;;
75655;SDS011;64252;51.094;13.714;2023-05-09T12:36:01;10.00;;;1.98;;
75655;SDS011;64252;51.094;13.714;2023-05-09T12:38:29;13.90;;;2.60;;
75655;SDS011;64252;51.094;13.714;2023-05-09T12:41:01;6.60;;;1.60;;
75655;SDS011;64252;51.094;13.714;2023-05-09T12:43:29;3.33;;;1.55;;
75655;SDS011;64252;51.094;13.714;2023-05-09T12:45:56;4.60;;;1.60;;
75655;SDS011;64252;51.094;13.714;2023-05-09T12:48:25;5.78;;;1.67;;
75655;SDS011;64252;51.094;13.714;2023-05-09T12:50:51;7.13;;;2.10;;
75655;SDS011;64252;51.094;13.714;2023-05-09T12:53:23;5.22;;;1.80;;
75655;SDS011;64252;51.094;13.714;2023-05-09T12:55:53;6.55;;;2.03;;
75655;SDS011;64252;51.094;13.714;2023-05-09T12:58:20;43.17;;;4.93;;
75655;SDS011;64252;51.094;13.714;2023-05-09T13:00:46;3.75;;;1.60;;
75655;SDS011;64252;51.094;13.714;2023-05-09T13:03:21;6.03;;;1.73;;
75655;SDS011;64252;51.094;13.714;2023-05-09T13:05:57;3.60;;;1.25;;
75655;SDS011;64252;51.094;13.714;2023-05-09T13:08:24;6.60;;;1.40;;
75655;SDS011;64252;51.094;13.714;2023-05-09T13:10:51;2.97;;;1.42;;
75655;SDS011;64252;51.094;13.714;2023-05-09T13:13:17;4.60;;;1.45;;
75655;SDS011;64252;51.094;13.714;2023-05-09T13:15:44;4.47;;;1.67;;
75655;SDS011;64252;51.094;13.714;2023-05-09T13:18:10;4.88;;;1.50;;
75655;SDS011;64252;51.094;13.714;2023-05-09T13:20:36;4.85;;;1.55;;
75655;SDS011;64252;51.094;13.714;2023-05-09T13:23:03;5.03;;;1.55;;
75655;SDS011;64252;51.094;13.714;2023-05-09T13:25:28;4.97;;;1.50;;
75655;SDS011;64252;51.094;13.714;2023-05-09T13:27:54;4.43;;;1.40;;
75655;SDS011;64252;51.094;13.714;2023-05-09T13:30:20;3.22;;;1.50;;
75655;SDS011;64252;51.094;13.714;2023-05-09T13:32:45;4.53;;;1.42;;
75655;SDS011;64252;51.094;13.714;2023-05-09T13:35:11;5.00;;;1.70;;
75655;SDS011;64252;51.094;13.714;2023-05-09T13:37:40;4.32;;;1.65;;
75655;SDS011;64252;51.094;13.714;2023-05-09T13:40:06;3.05;;;1.35;;
75655;SDS011;64252;51.094;13.714;2023-05-09T13:42:32;4.13;;;1.80;;
75655;SDS011;64252;51.094;13.714;2023-05-09T13:44:58;4.13;;;1.40;;
75655;SDS011;64252;51.094;13.714;2023-05-09T13:47:24;3.80;;;1.50;;
75655;SDS011;64252;51.094;13.714;2023-05-09T13:49:50;4.82;;;1.60;;
75655;SDS011;64252;51.094;13.714;2023-05-09T13:52:16;7.78;;;1.80;;
75655;SDS011;64252;51.094;13.714;2023-05-09T13:54:42;3.65;;;1.60;;
75655;SDS011;64252;51.094;13.714;2023-05-09T13:57:07;3.22;;;1.58;;
75655;SDS011;64252;51.094;13.714;2023-05-09T13:59:33;3.72;;;1.63;;
75655;SDS011;64252;51.094;13.714;2023-05-09T14:01:59;3.67;;;1.58;;
75655;SDS011;64252;51.094;13.714;2023-05-09T14:04:28;6.63;;;1.75;;
75655;SDS011;64252;51.094;13.714;2023-05-09T14:06:58;4.30;;;1.60;;
75655;SDS011;64252;51.094;13.714;2023-05-09T14:09:25;7.78;;;2.30;;
75655;SDS011;64252;51.094;13.714;2023-05-09T14:11:51;5.75;;;1.73;;
75655;SDS011;64252;51.094;13.714;2023-05-09T14:14:21;4.25;;;1.92;;
75655;SDS011;64252;51.094;13.714;2023-05-09T14:16:48;4.55;;;1.50;;
75655;SDS011;64252;51.094;13.714;2023-05-09T14:19:14;4.20;;;2.08;;
75655;SDS011;64252;51.094;13.714;2023-05-09T14:21:40;4.60;;;2.00;;
75655;SDS011;64252;51.094;13.714;2023-05-09T14:24:10;4.13;;;1.83;;
75655;SDS011;64252;51.094;13.714;2023-05-09T14:26:36;6.03;;;2.17;;
75655;SDS011;64252;51.094;13.714;2023-05-09T14:29:03;4.88;;;1.65;;
75655;SDS011;64252;51.094;13.714;2023-05-09T14:31:30;3.03;;;1.60;;
75655;SDS011;64252;51.094;13.714;2023-05-09T14:33:56;7.63;;;2.35;;
75655;SDS011;64252;51.094;13.714;2023-05-09T14:36:24;6.20;;;2.08;;
75655;SDS011;64252;51.094;13.714;2023-05-09T14:38:52;4.22;;;1.90;;
75655;SDS011;64252;51.094;13.714;2023-05-09T14:41:18;4.85;;;1.75;;
75655;SDS011;64252;51.094;13.714;2023-05-09T14:43:43;3.45;;;1.75;;
75655;SDS011;64252;51.094;13.714;2023-05-09T14:46:09;3.55;;;1.60;;
75655;SDS011;64252;51.094;13.714;2023-05-09T14:48:35;7.32;;;1.90;;
75655;SDS011;64252;51.094;13.714;2023-05-09T14:51:00;5.18;;;2.00;;
75655;SDS011;64252;51.094;13.714;2023-05-09T14:53:26;4.15;;;1.83;;
75655;SDS011;64252;51.094;13.714;2023-05-09T14:55:52;4.78;;;1.75;;
75655;SDS011;64252;51.094;13.714;2023-05-09T14:58:19;4.93;;;2.15;;
75655;SDS011;64252;51.094;13.714;2023-05-09T15:00:46;4.80;;;2.05;;
75655;SDS011;64252;51.094;13.714;2023-05-09T15:03:12;3.65;;;1.73;;